sensor_id;sensor_type;location;lat;lon;timestamp;temperature;humidity
4594;DHT22;2309;51.674;8.368;2023-11-21T06:37:39;8.10;99.90
4594;DHT22;2309;51.674;8.368;2023-11-21T06:40:06;8.10;99.90
4594;DHT22;2309;51.674;8.368;2023-11-21T06:42:36;8.10;99.90
4594;DHT22;2309;51.674;8.368;2023-11-21T06:45:04;8.10;99.90
4594;DHT22;2309;51.674;8.368;2023-11-21T06:47:37;8.10;99.90
4594;DHT22;2309;51.674;8.368;2023-11-21T06:50:02;8.20;99.90
4594;DHT22;2309;51.674;8.368;2023-11-21T06:54:56;8.30;99.90
4594;DHT22;2309;51.674;8.368;2023-11-21T07:00:13;8.30;99.90
4594;DHT22;2309;51.674;8.368;2023-11-21T07:05:12;8.30;99.90
4594;DHT22;2309;51.674;8.368;2023-11-21T07:07:40;8.30;99.90
4594;DHT22;2309;51.674;8.368;2023-11-21T07:10:07;8.30;99.90
4594;DHT22;2309;51.674;8.368;2023-11-21T07:12:39;8.30;99.90
4594;DHT22;2309;51.674;8.368;2023-11-21T07:15:07;8.30;99.90
4594;DHT22;2309;51.674;8.368;2023-11-21T07:17:35;10.00;99.90
4594;DHT22;2309;51.674;8.368;2023-11-21T07:20:03;8.30;99.90
4594;DHT22;2309;51.674;8.368;2023-11-21T07:22:33;8.30;99.90
4594;DHT22;2309;51.674;8.368;2023-11-21T07:25:03;8.30;99.90
4594;DHT22;2309;51.674;8.368;2023-11-21T07:27:32;8.30;99.90
4594;DHT22;2309;51.674;8.368;2023-11-21T07:30:00;8.40;99.90
4594;DHT22;2309;51.674;8.368;2023-11-21T07:32:31;8.30;99.90
4594;DHT22;2309;51.674;8.368;2023-11-21T07:34:58;8.30;99.90
4594;DHT22;2309;51.674;8.368;2023-11-21T07:37:27;8.30;99.90
4594;DHT22;2309;51.674;8.368;2023-11-21T07:40:00;8.30;99.90
4594;DHT22;2309;51.674;8.368;2023-11-21T07:42:24;8.30;99.90
4594;DHT22;2309;51.674;8.368;2023-11-21T07:47:19;8.10;99.90
4594;DHT22;2309;51.674;8.368;2023-11-21T07:49:45;8.10;99.90
4594;DHT22;2309;51.674;8.368;2023-11-21T07:52:13;8.10;99.90
4594;DHT22;2309;51.674;8.368;2023-11-21T07:54:42;8.10;99.90
4594;DHT22;2309;51.674;8.368;2023-11-21T07:57:11;8.10;99.90
4594;DHT22;2309;51.674;8.368;2023-11-21T07:59:40;8.10;99.90
4594;DHT22;2309;51.674;8.368;2023-11-21T08:02:13;8.10;99.90
4594;DHT22;2309;51.674;8.368;2023-11-21T08:07:20;8.10;99.90
4594;DHT22;2309;51.674;8.368;2023-11-21T08:09:46;8.20;99.90
4594;DHT22;2309;51.674;8.368;2023-11-21T08:12:10;8.20;99.90
4594;DHT22;2309;51.674;8.368;2023-11-21T08:14:39;8.10;99.90
4594;DHT22;2309;51.674;8.368;2023-11-21T08:17:10;8.10;99.90
4594;DHT22;2309;51.674;8.368;2023-11-21T08:19:43;8.10;99.90
4594;DHT22;2309;51.674;8.368;2023-11-21T08:22:10;8.20;99.90
4594;DHT22;2309;51.674;8.368;2023-11-21T08:24:37;8.20;99.90
4594;DHT22;2309;51.674;8.368;2023-11-21T08:34:47;8.40;99.90
4594;DHT22;2309;51.674;8.368;2023-11-21T08:47:28;8.30;99.90
4594;DHT22;2309;51.674;8.368;2023-11-21T09:07:59;8.40;99.90
4594;DHT22;2309;51.674;8.368;2023-11-21T09:50:28;8.80;99.90
4594;DHT22;2309;51.674;8.368;2023-11-21T09:58:25;8.80;99.90
4594;DHT22;2309;51.674;8.368;2023-11-21T10:00:58;8.80;99.90
4594;DHT22;2309;51.674;8.368;2023-11-21T10:05:54;8.80;99.90
4594;DHT22;2309;51.674;8.368;2023-11-21T10:08:19;8.70;99.90
4594;DHT22;2309;51.674;8.368;2023-11-21T10:10:51;8.70;99.90
4594;DHT22;2309;51.674;8.368;2023-11-21T10:37:02;8.60;99.90
4594;DHT22;2309;51.674;8.368;2023-11-21T10:39:29;8.60;99.90
4594;DHT22;2309;51.674;8.368;2023-11-21T10:42:02;8.60;99.90
4594;DHT22;2309;51.674;8.368;2023-11-21T10:55:17;9.00;99.90
4594;DHT22;2309;51.674;8.368;2023-11-21T11:07:58;9.00;99.90
4594;DHT22;2309;51.674;8.368;2023-11-21T11:10:29;9.00;99.90
4594;DHT22;2309;51.674;8.368;2023-11-21T11:12:56;9.10;99.90
4594;DHT22;2309;51.674;8.368;2023-11-21T11:15:26;9.10;99.90
4594;DHT22;2309;51.674;8.368;2023-11-21T11:17:54;9.20;99.90
4594;DHT22;2309;51.674;8.368;2023-11-21T11:20:25;9.20;99.90
4594;DHT22;2309;51.674;8.368;2023-11-21T11:22:56;9.20;99.90
4594;DHT22;2309;51.674;8.368;2023-11-21T11:25:38;9.20;99.90
4594;DHT22;2309;51.674;8.368;2023-11-21T11:27:56;9.20;99.90
4594;DHT22;2309;51.674;8.368;2023-11-21T11:32:54;9.10;99.90
4594;DHT22;2309;51.674;8.368;2023-11-21T11:35:21;9.20;99.90
4594;DHT22;2309;51.674;8.368;2023-11-21T11:37:46;9.20;99.90
4594;DHT22;2309;51.674;8.368;2023-11-21T11:42:55;9.10;99.90
4594;DHT22;2309;51.674;8.368;2023-11-21T11:45:18;9.10;99.90
4594;DHT22;2309;51.674;8.368;2023-11-21T11:47:38;9.00;99.90
4594;DHT22;2309;51.674;8.368;2023-11-21T11:50:25;9.00;99.90
4594;DHT22;2309;51.674;8.368;2023-11-21T12:11:06;8.90;99.90
4594;DHT22;2309;51.674;8.368;2023-11-21T12:16:09;9.00;99.90
4594;DHT22;2309;51.674;8.368;2023-11-21T12:18:42;8.90;99.90
4594;DHT22;2309;51.674;8.368;2023-11-21T12:21:09;8.90;99.90
4594;DHT22;2309;51.674;8.368;2023-11-21T12:23:36;8.90;99.90
4594;DHT22;2309;51.674;8.368;2023-11-21T12:26:07;8.90;99.90
4594;DHT22;2309;51.674;8.368;2023-11-21T12:28:36;8.90;99.90
4594;DHT22;2309;51.674;8.368;2023-11-21T12:31:06;9.00;99.90
4594;DHT22;2309;51.674;8.368;2023-11-21T12:47:02;8.70;99.90
4594;DHT22;2309;51.674;8.368;2023-11-21T15:04:44;7.30;99.90
4594;DHT22;2309;51.674;8.368;2023-11-21T15:19:49;7.00;1.00
4594;DHT22;2309;51.674;8.368;2023-11-21T15:22:16;7.20;1.00
4594;DHT22;2309;51.674;8.368;2023-11-21T15:24:43;7.10;1.00
4594;DHT22;2309;51.674;8.368;2023-11-21T15:27:12;7.00;99.90
4594;DHT22;2309;51.674;8.368;2023-11-21T15:29:40;7.10;99.90
4594;DHT22;2309;51.674;8.368;2023-11-21T15:32:07;7.00;99.90
4594;DHT22;2309;51.674;8.368;2023-11-21T15:34:34;7.00;99.90
4594;DHT22;2309;51.674;8.368;2023-11-21T15:37:02;7.00;43.60
4594;DHT22;2309;51.674;8.368;2023-11-21T15:39:29;7.00;1.00
4594;DHT22;2309;51.674;8.368;2023-11-21T15:41:57;7.00;89.30
4594;DHT22;2309;51.674;8.368;2023-11-21T15:44:24;7.00;1.00
4594;DHT22;2309;51.674;8.368;2023-11-21T15:46:52;6.90;1.00
4594;DHT22;2309;51.674;8.368;2023-11-21T15:57:15;6.90;1.00
